Time;durP1;ratioP1;P1;durP2;ratioP2;P2;SDS_P1;SDS_P2;PMS_P1;PMS_P2;Temp;Humidity;BMP_temperature;BMP_pressure;BME280_temperature;BME280_humidity;BME280_pressure;Samples;Min_cycle;Max_cycle;Signal;HPM_P1;HPM_P2
2022/05/07 00:02:09;;;;;;;3.83;3.43;;;;;;;13.89;74.70;100087.63;5108304;28;20202;-64
2022/05/07 00:04:37;;;;;;;4.20;3.07;;;;;;;13.86;74.54;100090.28;5108770;28;20199;-65
2022/05/07 00:07:06;;;;;;;2.97;2.77;;;;;;;13.88;75.08;100086.75;5105839;28;20203;-64
2022/05/07 00:09:34;;;;;;;3.33;2.70;;;;;;;13.88;74.90;100093.66;5106172;28;20199;-65
2022/05/07 00:12:01;;;;;;;3.30;3.10;;;;;;;13.75;75.18;100074.31;5108999;28;20286;-64
2022/05/07 00:14:28;;;;;;;3.40;3.20;;;;;;;13.80;75.47;100093.03;5112527;28;20199;-65
2022/05/07 00:19:39;;;;;;;4.17;3.87;;;;;;;13.74;76.11;100078.63;5111940;28;20205;-65
2022/05/07 00:22:07;;;;;;;3.93;3.67;;;;;;;13.79;76.44;100083.66;5112278;28;20718;-65
2022/05/07 00:24:34;;;;;;;3.33;3.03;;;;;;;13.75;76.24;100069.16;5112484;28;20722;-65
2022/05/07 00:27:01;;;;;;;2.90;2.70;;;;;;;13.83;76.77;100087.81;5111517;28;20277;-64
2022/05/07 00:29:28;;;;;;;3.53;3.33;;;;;;;13.84;76.93;100081.75;5111004;28;20214;-64
2022/05/07 00:31:55;;;;;;;3.60;3.40;;;;;;;13.75;77.21;100064.00;5112273;28;20312;-65
2022/05/07 00:34:23;;;;;;;3.33;3.20;;;;;;;13.85;77.58;100081.72;5111666;28;20214;-64
2022/05/07 00:36:50;;;;;;;4.30;4.00;;;;;;;13.79;78.02;100078.50;5111816;28;20302;-65
2022/05/07 00:39:18;;;;;;;2.93;2.83;;;;;;;13.82;78.09;100078.38;5111094;28;20194;-64
2022/05/07 00:41:45;;;;;;;3.50;3.30;;;;;;;13.74;78.30;100057.16;5112105;28;20748;-64
2022/05/07 00:44:12;;;;;;;3.40;3.20;;;;;;;13.76;78.29;100073.44;5111622;28;20206;-64
2022/05/07 00:46:39;;;;;;;3.73;3.53;;;;;;;13.74;78.64;100072.63;5111359;28;20191;-65
2022/05/07 00:49:06;;;;;;;3.80;3.50;;;;;;;13.64;78.84;100062.63;5110281;28;20217;-64
2022/05/07 00:51:35;;;;;;;3.40;3.10;;;;;;;13.67;79.14;100067.66;5111983;28;20293;-64
2022/05/07 00:54:04;;;;;;;3.40;3.10;;;;;;;13.65;79.18;100068.63;5109108;28;20629;-64
2022/05/07 00:56:33;;;;;;;5.33;3.40;;;;;;;13.61;79.69;100072.19;5107962;28;20215;-65
2022/05/07 00:59:01;;;;;;;4.17;3.97;;;;;;;13.59;80.00;100071.41;5111303;28;20289;-65
2022/05/07 01:01:28;;;;;;;3.93;3.73;;;;;;;13.52;80.27;100057.88;5111903;28;20666;-65
2022/05/07 01:03:56;;;;;;;3.50;3.30;;;;;;;13.54;80.30;100061.22;5111935;28;20715;-64
2022/05/07 01:06:23;;;;;;;4.47;3.40;;;;;;;13.37;80.54;100037.75;5111274;28;20726;-64
2022/05/07 01:08:50;;;;;;;3.37;3.17;;;;;;;13.53;80.89;100064.72;5111934;28;20202;-64
2022/05/07 01:11:18;;;;;;;3.50;3.30;;;;;;;13.48;80.78;100061.41;5110823;28;21598;-64
2022/05/07 01:13:47;;;;;;;4.20;4.00;;;;;;;13.40;80.90;100047.09;5111737;28;20729;-65
2022/05/07 01:16:14;;;;;;;3.87;3.67;;;;;;;13.43;80.60;100065.03;5110673;28;20248;-65
2022/05/07 01:18:42;;;;;;;3.63;3.43;;;;;;;13.42;80.24;100061.63;5109656;28;20286;-65
2022/05/07 01:21:12;;;;;;;4.27;3.97;;;;;;;13.33;80.40;100046.47;5111913;28;20205;-64
2022/05/07 01:23:40;;;;;;;4.10;3.80;;;;;;;13.38;80.39;100060.03;5108038;28;20191;-65
2022/05/07 01:26:07;;;;;;;4.33;3.93;;;;;;;13.37;80.54;100052.34;5110726;28;20191;-64
2022/05/07 01:28:35;;;;;;;3.80;3.60;;;;;;;13.34;80.85;100062.75;5111336;28;20191;-65
2022/05/07 01:31:02;;;;;;;3.97;3.70;;;;;;;13.32;80.99;100062.78;5111532;28;20195;-64
2022/05/07 01:33:29;;;;;;;4.23;3.87;;;;;;;13.30;81.59;100059.44;5111254;28;20210;-65
2022/05/07 01:35:55;;;;;;;5.03;3.80;;;;;;;13.29;81.24;100059.47;5110255;28;20214;-64
2022/05/07 01:38:24;;;;;;;5.80;4.03;;;;;;;13.27;81.96;100045.81;5108951;28;20199;-65
2022/05/07 01:40:51;;;;;;;4.03;3.63;;;;;;;13.25;81.81;100045.03;5109906;28;20289;-64
2022/05/07 01:43:18;;;;;;;4.10;3.63;;;;;;;13.22;82.54;100045.94;5110247;28;20337;-64
2022/05/07 01:45:44;;;;;;;5.63;3.57;;;;;;;13.19;82.69;100053.75;5110194;28;20237;-64
2022/05/07 01:48:11;;;;;;;3.77;3.47;;;;;;;13.11;83.15;100041.13;5109503;28;20722;-64
2022/05/07 01:50:39;;;;;;;4.00;3.73;;;;;;;13.15;83.52;100058.16;5109894;28;20194;-64
2022/05/07 01:53:07;;;;;;;4.30;3.80;;;;;;;13.14;83.17;100050.50;5109959;28;20214;-64
2022/05/07 01:55:36;;;;;;;3.67;3.47;;;;;;;13.00;83.38;100032.00;5110433;28;20190;-65
2022/05/07 01:58:04;;;;;;;3.80;3.60;;;;;;;13.08;83.56;100056.66;5110188;28;20229;-64
2022/05/07 02:00:31;;;;;;;4.30;3.90;;;;;;;12.85;83.79;100017.03;5108580;28;20201;-64
2022/05/07 02:02:58;;;;;;;4.53;4.33;;;;;;;13.07;83.90;100061.81;5108370;28;20685;-64
2022/05/07 02:05:26;;;;;;;4.53;4.17;;;;;;;12.90;84.14;100035.72;5107656;28;20663;-64
2022/05/07 02:07:53;;;;;;;4.50;4.20;;;;;;;13.03;84.82;100061.06;5110902;28;20588;-65
2022/05/07 02:10:21;;;;;;;4.77;3.50;;;;;;;13.02;84.55;100061.94;5110114;28;20683;-64
2022/05/07 02:12:50;;;;;;;4.20;3.90;;;;;;;12.97;84.29;100057.81;5110275;28;20238;-64
2022/05/07 02:15:17;;;;;;;4.47;3.63;;;;;;;12.92;83.91;100054.56;5109730;28;20207;-64
2022/05/07 02:17:44;;;;;;;4.57;4.17;;;;;;;12.91;83.58;100065.72;5110164;28;20301;-64
2022/05/07 02:20:11;;;;;;;4.20;3.80;;;;;;;12.83;83.84;100065.94;5105708;28;20195;-64
2022/05/07 02:22:38;;;;;;;4.03;3.73;;;;;;;12.75;83.72;100067.06;5108688;28;20292;-64
2022/05/07 02:25:07;;;;;;;4.33;3.93;;;;;;;12.73;83.95;100055.97;5110303;28;20570;-64
2022/05/07 02:27:33;;;;;;;4.33;4.03;;;;;;;12.68;84.12;100055.25;5110210;28;20195;-64
2022/05/07 02:30:02;;;;;;;4.70;4.40;;;;;;;12.66;84.51;100051.88;5108849;28;20191;-64
2022/05/07 02:32:29;;;;;;;4.13;3.83;;;;;;;12.62;84.59;100046.81;5109921;28;20660;-64
2022/05/07 02:34:56;;;;;;;6.37;4.40;;;;;;;12.56;84.71;100047.00;5109659;28;20201;-64
2022/05/07 02:37:22;;;;;;;4.10;3.90;;;;;;;12.47;84.75;100044.66;5109342;28;20207;-64
2022/05/07 02:39:50;;;;;;;3.80;3.60;;;;;;;12.41;85.26;100044.84;5109858;28;20195;-64
2022/05/07 02:42:36;;;;;;;3.70;3.60;;;;;;;12.38;85.30;100047.50;5108810;28;20230;-64
2022/05/07 02:45:07;;;;;;;4.73;4.47;;;;;;;12.37;85.46;100038.09;5108403;28;20214;-64
2022/05/07 02:47:34;;;;;;;4.43;4.23;;;;;;;12.33;85.49;100040.78;5109721;28;20803;-64
2022/05/07 02:50:02;;;;;;;3.70;3.50;;;;;;;12.23;85.59;100023.94;5109340;28;20240;-64
2022/05/07 02:52:32;;;;;;;4.37;4.00;;;;;;;12.28;85.72;100037.53;5109381;28;20206;-64
2022/05/07 02:55:00;;;;;;;3.80;3.37;;;;;;;12.25;86.20;100040.13;5109604;28;20198;-64
2022/05/07 02:57:27;;;;;;;4.20;4.00;;;;;;;12.20;86.13;100042.84;5109025;28;20313;-64
2022/05/07 02:59:55;;;;;;;4.00;3.80;;;;;;;12.17;86.69;100032.66;5107975;28;20204;-64
2022/05/07 03:02:23;;;;;;;4.17;3.87;;;;;;;12.18;86.97;100054.88;5106518;28;20594;-64
2022/05/07 03:04:51;;;;;;;5.20;3.60;;;;;;;12.19;87.07;100053.16;5110510;28;20198;-64
2022/05/07 03:07:18;;;;;;;4.30;4.00;;;;;;;12.18;86.92;100062.59;5109602;28;20194;-64
2022/05/07 03:09:45;;;;;;;4.50;4.20;;;;;;;12.16;87.15;100051.53;5109927;28;20285;-64
2022/05/07 03:12:12;;;;;;;4.33;3.83;;;;;;;12.15;87.44;100054.97;5107774;28;20203;-64
2022/05/07 03:14:39;;;;;;;4.17;3.87;;;;;;;12.16;87.02;100054.09;5109959;28;20194;-64
2022/05/07 03:17:07;;;;;;;3.80;3.60;;;;;;;12.13;87.38;100054.16;5105579;28;20275;-64
2022/05/07 03:19:35;;;;;;;4.53;3.70;;;;;;;12.12;87.37;100049.91;5106763;28;20195;-64
2022/05/07 03:22:02;;;;;;;4.13;3.93;;;;;;;12.10;87.18;100054.25;5109034;28;20195;-64
2022/05/07 03:24:29;;;;;;;4.20;4.00;;;;;;;12.08;86.99;100049.13;5109096;28;20187;-64
2022/05/07 03:26:56;;;;;;;3.90;3.70;;;;;;;12.16;87.45;100056.66;5109684;28;20663;-64
2022/05/07 03:29:23;;;;;;;4.17;3.90;;;;;;;12.18;87.29;100062.59;5108631;28;20232;-64
2022/05/07 03:31:49;;;;;;;5.90;4.60;;;;;;;12.20;87.45;100065.97;5109182;28;20190;-64
2022/05/07 03:34:17;;;;;;;4.13;3.93;;;;;;;12.23;87.45;100068.47;5108524;28;20901;-64
2022/05/07 03:36:45;;;;;;;4.03;3.73;;;;;;;12.26;88.05;100068.38;5109170;28;20214;-64
2022/05/07 03:39:12;;;;;;;3.87;3.67;;;;;;;12.21;88.40;100054.81;5106316;28;20195;-64
2022/05/07 03:41:40;;;;;;;4.00;3.73;;;;;;;12.36;88.89;100069.84;5107937;28;20238;-64
2022/05/07 03:44:07;;;;;;;4.13;3.83;;;;;;;12.41;88.86;100062.84;5108619;28;20293;-64
2022/05/07 03:46:34;;;;;;;4.17;3.80;;;;;;;12.52;89.23;100071.13;5109461;28;20293;-64
2022/05/07 03:49:01;;;;;;;4.30;4.00;;;;;;;12.60;89.68;100073.47;5113106;28;20202;-64
2022/05/07 03:51:28;;;;;;;7.10;4.67;;;;;;;12.71;89.32;100070.59;5112869;28;20206;-64
2022/05/07 03:53:55;;;;;;;4.53;3.70;;;;;;;12.81;89.01;100072.88;5112783;28;20199;-64
2022/05/07 03:56:22;;;;;;;5.13;4.73;;;;;;;12.89;88.97;100077.81;5110940;28;20229;-64
2022/05/07 03:58:49;;;;;;;3.50;3.30;;;;;;;12.97;87.78;100075.84;5111309;28;20203;-64
2022/05/07 04:01:16;;;;;;;4.20;3.90;;;;;;;13.05;87.67;100072.13;5109786;28;20552;-64
2022/05/07 04:03:43;;;;;;;7.63;4.00;;;;;;;13.14;87.57;100076.22;5110921;28;20297;-64
2022/05/07 04:06:10;;;;;;;5.17;4.77;;;;;;;13.17;87.88;100072.72;5112970;28;20202;-64
2022/05/07 04:08:37;;;;;;;3.93;3.63;;;;;;;13.31;87.93;100079.13;5112599;28;20194;-64
2022/05/07 04:11:05;;;;;;;4.40;4.00;;;;;;;13.41;87.44;100077.94;5112103;28;20285;-64
2022/05/07 04:13:32;;;;;;;5.47;4.63;;;;;;;13.50;86.58;100085.41;5110150;28;20286;-64
2022/05/07 04:15:59;;;;;;;4.50;4.10;;;;;;;13.58;86.22;100093.72;5112463;28;20286;-64
2022/05/07 04:18:26;;;;;;;4.23;3.93;;;;;;;13.66;85.38;100091.78;5111755;28;20305;-64
2022/05/07 04:20:53;;;;;;;4.60;4.30;;;;;;;13.72;84.92;100084.72;5109691;28;20203;-65
2022/05/07 04:23:20;;;;;;;4.23;3.93;;;;;;;13.88;85.36;100096.22;5105706;28;20203;-64
2022/05/07 04:25:47;;;;;;;11.07;4.10;;;;;;;13.96;84.63;100078.75;5113071;28;20195;-64
2022/05/07 04:28:15;;;;;;;4.70;4.07;;;;;;;14.21;84.64;100089.97;5108988;28;20203;-64
2022/05/07 04:30:42;;;;;;;3.97;3.77;;;;;;;14.37;83.52;100088.56;5112484;28;20290;-65
2022/05/07 04:33:10;;;;;;;3.80;3.60;;;;;;;14.49;82.21;100093.31;5111505;28;20289;-64
2022/05/07 04:35:37;;;;;;;3.83;3.57;;;;;;;14.52;81.97;100095.78;5110786;28;20199;-64
2022/05/07 04:38:03;;;;;;;4.97;4.57;;;;;;;14.56;81.98;100096.50;5111109;28;20221;-65
2022/05/07 04:40:30;;;;;;;4.50;4.30;;;;;;;14.62;80.87;100102.28;5112146;28;20206;-65
2022/05/07 04:42:57;;;;;;;4.80;4.50;;;;;;;14.73;79.40;100106.25;5111362;28;20309;-64
2022/05/07 04:45:27;;;;;;;5.07;4.77;;;;;;;14.81;79.55;100101.63;5112397;28;20229;-65
2022/05/07 04:47:54;;;;;;;5.53;5.03;;;;;;;14.79;78.66;100104.28;5109825;28;20743;-65
2022/05/07 04:50:21;;;;;;;5.47;4.90;;;;;;;14.87;79.25;100109.16;5111466;28;20213;-65
2022/05/07 04:52:48;;;;;;;5.77;5.07;;;;;;;14.95;78.65;100112.31;5111757;28;20328;-64
2022/05/07 04:55:15;;;;;;;5.57;5.27;;;;;;;15.06;78.75;100107.56;5110964;28;20199;-65
2022/05/07 04:57:42;;;;;;;5.23;4.80;;;;;;;15.22;78.33;100119.00;5112039;28;20214;-64
2022/05/07 05:00:10;;;;;;;5.43;4.93;;;;;;;15.40;78.29;100120.91;5107572;28;20210;-65
2022/05/07 05:02:38;;;;;;;7.93;5.47;;;;;;;15.68;79.67;100121.56;5110092;28;20277;-64
2022/05/07 05:05:06;;;;;;;5.30;5.00;;;;;;;15.95;77.56;100114.44;5109498;28;20247;-65
2022/05/07 05:07:32;;;;;;;6.03;5.63;;;;;;;16.10;74.39;100112.97;5109950;28;20187;-64
2022/05/07 05:09:59;;;;;;;5.47;5.17;;;;;;;16.15;73.19;100123.97;5111677;28;20582;-65
2022/05/07 05:12:26;;;;;;;6.87;6.37;;;;;;;16.13;73.20;100120.59;5111116;28;20590;-65
2022/05/07 05:15:03;;;;;;;6.33;5.83;;;;;;;16.08;71.94;100123.38;5105114;28;20655;-64
2022/05/07 05:17:30;;;;;;;6.77;6.00;;;;;;;16.07;72.68;100128.59;5106324;28;20269;-65
2022/05/07 05:19:59;;;;;;;6.63;6.23;;;;;;;16.00;73.28;100124.59;5106521;28;20263;-65
2022/05/07 05:22:26;;;;;;;6.50;5.90;;;;;;;15.99;73.44;100128.94;5105108;28;20200;-65
2022/05/07 05:24:53;;;;;;;7.20;6.60;;;;;;;16.01;74.15;100128.88;5110681;28;20219;-65
2022/05/07 05:27:20;;;;;;;6.30;5.87;;;;;;;16.14;73.56;100127.47;5110749;28;20628;-65
2022/05/07 05:29:47;;;;;;;5.97;5.43;;;;;;;16.24;72.21;100128.75;5110850;28;20730;-65
2022/05/07 05:32:17;;;;;;;5.97;5.60;;;;;;;16.33;73.48;100128.38;5109977;28;20662;-65
2022/05/07 05:34:46;;;;;;;7.00;6.40;;;;;;;16.48;73.16;100127.72;5108796;28;20203;-65
2022/05/07 05:37:16;;;;;;;7.40;6.90;;;;;;;16.68;73.52;100129.47;5109823;28;20305;-65
2022/05/07 05:39:43;;;;;;;6.90;6.20;;;;;;;16.60;73.17;100132.41;5110937;28;20227;-65
2022/05/07 05:42:10;;;;;;;5.87;5.37;;;;;;;16.47;73.70;100139.00;5109907;28;20230;-65
2022/05/07 05:44:38;;;;;;;6.30;5.77;;;;;;;16.18;74.57;100127.28;5110093;28;20658;-65
2022/05/07 05:47:06;;;;;;;6.20;5.90;;;;;;;16.13;74.35;100130.94;5110303;28;20199;-65
2022/05/07 05:49:34;;;;;;;6.13;5.77;;;;;;;16.10;74.07;100133.66;5110823;28;20222;-65
2022/05/07 05:52:02;;;;;;;6.80;6.20;;;;;;;16.11;74.71;100127.59;5110228;28;20252;-65
2022/05/07 05:54:31;;;;;;;6.73;5.83;;;;;;;16.04;75.64;100133.91;5108411;28;20207;-65
2022/05/07 05:56:58;;;;;;;5.93;5.40;;;;;;;16.07;75.11;100138.94;5110813;28;20772;-65
2022/05/07 05:59:25;;;;;;;5.67;5.20;;;;;;;16.09;75.12;100139.75;5109896;28;20215;-65
2022/05/07 06:01:52;;;;;;;6.57;5.60;;;;;;;16.16;75.15;100130.81;5110066;28;20203;-65
2022/05/07 06:04:19;;;;;;;5.43;5.13;;;;;;;16.23;75.95;100143.44;5109321;28;20632;-65
2022/05/07 06:06:46;;;;;;;6.17;5.77;;;;;;;16.37;76.52;100137.69;5105118;28;20202;-65
2022/05/07 06:09:14;;;;;;;6.60;6.00;;;;;;;16.48;74.49;100135.47;5106307;28;20199;-65
2022/05/07 06:11:42;;;;;;;5.27;4.90;;;;;;;16.50;72.51;100118.16;5109432;28;20198;-65
2022/05/07 06:14:09;;;;;;;6.80;6.20;;;;;;;16.57;72.40;100132.56;5107671;28;20209;-65
2022/05/07 06:16:36;;;;;;;7.20;5.60;;;;;;;16.63;71.97;100128.84;5109921;28;20282;-65
2022/05/07 06:19:03;;;;;;;7.83;5.60;;;;;;;16.79;72.33;100138.47;5109000;28;20753;-65
2022/05/07 06:21:30;;;;;;;6.63;5.40;;;;;;;16.88;71.18;100136.38;5104567;28;20648;-65
2022/05/07 06:27:28;;;;;;;5.73;5.43;;;;;;;16.91;72.49;100131.06;5107966;28;20659;-65
2022/05/07 06:29:29;;;;;;;5.67;5.23;;;;;;;17.12;68.13;100138.75;5107113;28;20200;-65
2022/05/07 06:31:56;;;;;;;6.97;5.30;;;;;;;17.38;68.56;100131.53;5107716;28;20213;-65
2022/05/07 06:34:24;;;;;;;5.90;5.37;;;;;;;17.79;71.86;100139.06;5101146;28;20211;-65
2022/05/07 06:36:51;;;;;;;6.13;5.53;;;;;;;18.12;70.16;100140.94;5106763;28;20202;-60
2022/05/07 06:39:20;;;;;;;6.23;5.83;;;;;;;18.26;67.33;100133.28;5108039;28;20219;-60
2022/05/07 06:41:49;;;;;;;5.73;4.93;;;;;;;18.48;64.00;100133.88;5105207;28;20222;-61
2022/05/07 06:44:16;;;;;;;5.47;5.17;;;;;;;18.70;62.94;100138.88;5108154;28;20212;-60
2022/05/07 06:46:44;;;;;;;11.07;5.03;;;;;;;18.91;62.30;100126.50;5108342;28;20593;-61
2022/05/07 06:49:11;;;;;;;7.27;4.80;;;;;;;18.87;61.13;100131.84;5108038;28;20206;-61
2022/05/07 06:51:38;;;;;;;5.30;4.80;;;;;;;19.11;62.32;100128.88;5106830;28;20213;-60
2022/05/07 06:54:05;;;;;;;5.70;4.67;;;;;;;19.22;61.06;100131.75;5107717;28;20298;-60
2022/05/07 06:56:33;;;;;;;5.07;4.67;;;;;;;19.65;60.08;100141.50;5107910;28;20229;-61
2022/05/07 06:59:01;;;;;;;5.60;5.30;;;;;;;19.89;59.97;100140.16;5106173;28;20702;-60
2022/05/07 07:01:29;;;;;;;5.00;4.70;;;;;;;20.07;60.10;100140.00;5108444;28;20747;-60
2022/05/07 07:03:56;;;;;;;5.00;4.67;;;;;;;20.35;58.38;100140.16;5103959;28;20224;-60
2022/05/07 07:06:23;;;;;;;6.80;4.70;;;;;;;20.36;57.78;100131.38;5107884;28;20207;-61
2022/05/07 07:08:52;;;;;;;7.07;5.53;;;;;;;20.33;56.89;100139.38;5108249;28;20206;-61
2022/05/07 07:11:20;;;;;;;5.07;4.77;;;;;;;20.67;58.18;100136.47;5107409;28;20883;-61
2022/05/07 07:13:47;;;;;;;4.60;4.30;;;;;;;20.66;55.67;100139.16;5108363;28;20215;-61
2022/05/07 07:16:16;;;;;;;4.50;4.20;;;;;;;20.67;54.60;100138.22;5107140;28;20205;-61
2022/05/07 07:18:43;;;;;;;4.30;4.00;;;;;;;20.51;56.47;100130.50;5108758;28;20221;-61
2022/05/07 07:21:11;;;;;;;4.90;4.60;;;;;;;20.71;56.46;100130.13;5107484;28;20205;-62
2022/05/07 07:23:38;;;;;;;4.33;4.13;;;;;;;20.53;54.98;100126.03;5109800;28;20671;-61
2022/05/07 07:26:05;;;;;;;4.73;4.47;;;;;;;20.62;54.84;100135.91;5112504;28;20213;-62
2022/05/07 07:28:32;;;;;;;4.70;4.40;;;;;;;20.56;55.14;100131.06;5110050;28;20233;-62
2022/05/07 07:30:59;;;;;;;6.63;4.90;;;;;;;20.68;55.89;100125.09;5110054;28;20286;-61
2022/05/07 07:33:27;;;;;;;5.87;4.60;;;;;;;20.54;54.70;100132.91;5111440;28;20200;-61
2022/05/07 07:35:54;;;;;;;4.67;4.27;;;;;;;20.75;55.53;100129.00;5111427;28;20198;-60
2022/05/07 07:38:21;;;;;;;4.90;4.50;;;;;;;20.81;53.96;100126.03;5109851;28;20227;-61
2022/05/07 07:40:50;;;;;;;5.60;5.20;;;;;;;20.28;53.66;100125.81;5111385;28;20198;-61
2022/05/07 07:43:17;;;;;;;4.80;4.40;;;;;;;20.22;55.06;100131.34;5111335;28;20575;-61
2022/05/07 07:48:31;;;;;;;4.67;4.47;;;;;;;20.85;54.46;100132.75;5109932;28;20725;-60
2022/05/07 07:50:58;;;;;;;5.10;4.80;;;;;;;20.95;53.48;100127.81;5111726;28;20206;-60
2022/05/07 07:53:25;;;;;;;4.30;4.00;;;;;;;20.80;52.44;100124.38;5111757;28;20209;-61
2022/05/07 07:55:52;;;;;;;4.73;4.43;;;;;;;20.48;53.25;100128.09;5111955;28;20685;-61
2022/05/07 07:58:19;;;;;;;3.80;3.60;;;;;;;20.56;53.83;100133.66;5111085;28;20225;-61
2022/05/07 08:00:46;;;;;;;4.70;4.37;;;;;;;20.17;53.38;100108.16;5111941;28;20207;-61
2022/05/07 08:03:15;;;;;;;5.13;4.70;;;;;;;20.31;54.13;100133.44;5108461;28;20195;-61
2022/05/07 08:05:46;;;;;;;5.03;4.73;;;;;;;20.44;54.06;100126.56;5110169;28;20240;-61
2022/05/07 08:13:45;;;;;;;4.57;4.27;;;;;;;19.87;56.75;100121.16;5111819;28;20624;-61
2022/05/07 08:16:13;;;;;;;5.37;5.00;;;;;;;20.08;56.59;100118.28;5110675;28;20197;-60
2022/05/07 08:18:41;;;;;;;6.13;5.73;;;;;;;19.95;57.34;100122.50;5111833;28;20582;-62
2022/05/07 08:21:11;;;;;;;7.20;5.37;;;;;;;19.95;57.14;100107.72;5109223;28;20290;-61
2022/05/07 08:23:38;;;;;;;5.90;4.80;;;;;;;20.30;60.06;100108.31;5108515;28;20290;-61
2022/05/07 08:26:05;;;;;;;4.90;4.53;;;;;;;20.58;56.62;100117.94;5110372;28;20298;-60
2022/05/07 08:28:32;;;;;;;6.93;4.87;;;;;;;20.69;56.06;100111.16;5110586;28;20206;-61
2022/05/07 08:31:00;;;;;;;5.07;4.77;;;;;;;20.63;56.62;100106.31;5110174;28;20294;-61
2022/05/07 08:33:27;;;;;;;5.23;4.93;;;;;;;20.50;57.70;100117.56;5110735;28;20218;-60
2022/05/07 08:35:54;;;;;;;6.67;5.27;;;;;;;20.60;56.25;100111.72;5110550;28;20199;-61
2022/05/07 08:38:22;;;;;;;4.90;4.67;;;;;;;21.02;56.79;100110.03;5112514;28;20849;-62
2022/05/07 08:40:50;;;;;;;5.97;5.47;;;;;;;20.63;54.55;100085.47;5110327;28;20196;-63
2022/05/07 08:43:17;;;;;;;4.30;4.10;;;;;;;20.54;55.78;100104.25;5110153;28;20294;-61
2022/05/07 08:45:45;;;;;;;4.60;4.33;;;;;;;20.70;54.50;100118.03;5111819;28;20199;-62
2022/05/07 08:48:13;;;;;;;4.87;4.50;;;;;;;20.44;55.78;100116.16;5110677;28;20210;-62
2022/05/07 08:50:40;;;;;;;4.33;4.13;;;;;;;20.40;55.70;100112.06;5111938;28;20653;-62
2022/05/07 08:53:09;;;;;;;4.23;3.93;;;;;;;20.43;56.26;100110.09;5111146;28;20285;-61
2022/05/07 08:55:37;;;;;;;4.80;4.40;;;;;;;20.59;55.59;100099.59;5110139;28;20218;-60
2022/05/07 08:58:04;;;;;;;4.50;4.20;;;;;;;20.63;55.82;100101.09;5110818;28;20237;-61
2022/05/07 09:00:33;;;;;;;4.83;4.37;;;;;;;20.49;55.06;100103.69;5109141;28;20202;-61
2022/05/07 09:03:02;;;;;;;4.53;4.13;;;;;;;20.48;54.89;100102.03;5109501;28;20635;-61
2022/05/07 09:05:34;;;;;;;4.60;4.30;;;;;;;20.46;56.74;100067.41;5110490;28;20282;-61
2022/05/07 09:08:01;;;;;;;4.40;4.10;;;;;;;20.91;54.57;100103.69;5111128;28;20197;-62
2022/05/07 09:10:29;;;;;;;4.90;4.53;;;;;;;20.86;55.67;100097.94;5111324;28;21778;-62
2022/05/07 09:13:10;;;;;;;4.13;3.73;;;;;;;20.85;52.91;100106.69;5105291;27;20208;-62
2022/05/07 09:15:37;;;;;;;4.70;4.40;;;;;;;20.93;56.52;100098.41;5104217;28;20206;-62
2022/05/07 09:18:13;;;;;;;5.30;4.73;;;;;;;21.07;53.87;100105.34;5107788;28;20310;-61
2022/05/07 09:20:40;;;;;;;4.90;4.37;;;;;;;21.28;53.09;100109.28;5106756;28;20563;-62
2022/05/07 09:23:07;;;;;;;4.97;4.57;;;;;;;21.54;53.66;100113.69;5109292;28;20206;-62
2022/05/07 09:25:35;;;;;;;4.40;4.10;;;;;;;21.12;52.74;100108.56;5110846;28;20282;-61
2022/05/07 09:28:03;;;;;;;5.10;4.70;;;;;;;21.12;53.07;100100.72;5108902;28;20635;-62
2022/05/07 09:30:31;;;;;;;3.80;3.60;;;;;;;20.87;51.89;100099.59;5107021;28;20205;-62
2022/05/07 09:32:58;;;;;;;4.03;3.83;;;;;;;20.98;51.97;100095.50;5107390;28;20252;-62
2022/05/07 09:38:12;;;;;;;4.27;4.00;;;;;;;20.98;52.12;100095.50;5108414;28;20283;-62
2022/05/07 09:40:41;;;;;;;4.43;4.23;;;;;;;21.14;54.35;100088.44;5108116;28;20195;-62
2022/05/07 09:43:11;;;;;;;4.10;3.90;;;;;;;20.78;52.04;100089.75;5108771;28;20714;-62
2022/05/07 09:45:40;;;;;;;6.97;4.07;;;;;;;20.80;53.18;100093.09;5101792;27;20215;-62
2022/05/07 09:48:07;;;;;;;4.40;4.17;;;;;;;20.86;55.23;100087.50;5108540;28;20231;-62
2022/05/07 09:50:46;;;;;;;4.30;4.00;;;;;;;21.21;58.95;100087.13;5109808;28;20626;-61
2022/05/07 09:58:47;;;;;;;4.17;3.87;;;;;;;21.18;50.17;100077.72;5110473;28;20211;-61
2022/05/07 10:01:48;;;;;;;3.93;3.70;;;;;;;20.82;50.47;100080.81;5104498;28;20199;-61
2022/05/07 10:04:33;;;;;;;4.77;4.47;;;;;;;20.73;52.74;100052.72;5107133;27;20202;-61
2022/05/07 10:07:19;;;;;;;4.33;4.03;;;;;;;20.86;51.33;100071.88;5108396;28;20206;-62
2022/05/07 10:10:02;;;;;;;4.33;4.07;;;;;;;20.72;51.21;100050.19;5107034;27;20635;-62
2022/05/07 10:12:29;;;;;;;3.90;3.60;;;;;;;21.03;52.34;100067.38;5108139;28;20207;-62
2022/05/07 10:15:07;;;;;;;3.87;3.50;;;;;;;21.16;49.67;100063.13;5108695;28;20295;-61
2022/05/07 10:17:35;;;;;;;3.93;3.63;;;;;;;21.36;49.61;100060.91;5109316;28;20593;-61
2022/05/07 10:20:06;;;;;;;4.97;3.80;;;;;;;21.51;48.10;100058.25;5106647;28;20292;-62
2022/05/07 10:22:33;;;;;;;5.60;3.43;;;;;;;21.68;49.01;100056.19;5106767;28;20208;-61
2022/05/07 10:25:06;;;;;;;5.13;3.30;;;;;;;21.64;48.28;100059.13;5108251;28;20816;-61
2022/05/07 10:27:34;;;;;;;3.47;3.27;;;;;;;21.62;45.76;100067.03;5108441;28;20295;-62
2022/05/07 10:30:08;;;;;;;3.37;3.07;;;;;;;21.67;46.99;100054.56;5108660;28;20715;-61
2022/05/07 10:32:55;;;;;;;3.30;3.10;;;;;;;21.71;47.36;100050.78;5108255;28;20304;-61
2022/05/07 10:35:42;;;;;;;3.63;3.43;;;;;;;21.95;47.58;100043.97;5107616;28;20204;-66
2022/05/07 10:38:10;;;;;;;4.70;2.77;;;;;;;21.71;46.32;100042.13;5106587;28;20246;-62
2022/05/07 10:40:37;;;;;;;3.57;3.23;;;;;;;21.71;47.55;100037.72;5110613;28;20245;-62
2022/05/07 10:43:05;;;;;;;2.90;2.80;;;;;;;21.83;46.13;100034.34;5104860;28;20379;-62
2022/05/07 10:45:42;;;;;;;3.40;3.10;;;;;;;21.70;46.25;100033.47;5105317;28;20669;-62
2022/05/07 10:48:19;;;;;;;2.87;2.67;;;;;;;21.83;45.86;100023.88;5105242;28;20216;-62
2022/05/07 10:50:54;;;;;;;5.13;2.90;;;;;;;21.94;43.46;100025.78;5110037;28;20212;-62
2022/05/07 10:53:22;;;;;;;3.00;2.90;;;;;;;22.02;45.63;100033.13;5110037;28;20702;-63
2022/05/07 10:55:52;;;;;;;3.30;3.10;;;;;;;22.01;43.42;100026.22;5110045;28;20699;-63
2022/05/07 10:58:28;;;;;;;2.33;2.23;;;;;;;22.08;43.78;100019.66;5109065;28;20213;-64
2022/05/07 11:00:59;;;;;;;2.40;2.30;;;;;;;21.91;43.09;100020.78;5109327;28;21711;-63
2022/05/07 11:03:26;;;;;;;3.07;2.57;;;;;;;22.04;43.53;100013.78;5109275;28;20205;-63
2022/05/07 11:06:00;;;;;;;3.03;2.73;;;;;;;22.12;42.35;100014.13;5110224;28;21066;-61
2022/05/07 11:08:29;;;;;;;3.10;2.90;;;;;;;22.22;43.69;100012.56;5110116;28;20680;-64
2022/05/07 11:11:05;;;;;;;3.77;2.60;;;;;;;22.13;42.53;100013.19;5109428;28;20210;-64
2022/05/07 11:13:32;;;;;;;2.87;2.77;;;;;;;22.04;43.40;100005.13;5109643;28;20208;-62
2022/05/07 11:16:07;;;;;;;5.50;3.20;;;;;;;21.91;42.48;99995.50;5109936;28;20201;-62
2022/05/07 11:18:35;;;;;;;3.10;2.90;;;;;;;22.06;43.47;100003.25;5110124;28;20227;-63
2022/05/07 11:21:05;;;;;;;3.70;3.40;;;;;;;21.93;43.72;99988.44;5108648;28;20248;-62
2022/05/07 11:23:37;;;;;;;3.20;3.10;;;;;;;21.95;43.52;99990.94;5108869;28;20751;-60
2022/05/07 11:26:16;;;;;;;3.70;3.40;;;;;;;21.81;44.07;99998.84;5109600;28;20214;-64
2022/05/07 11:28:43;;;;;;;2.87;2.67;;;;;;;21.85;45.29;99985.47;5109423;28;20206;-61
2022/05/07 11:31:15;;;;;;;2.80;2.67;;;;;;;21.73;43.30;99996.72;5109756;28;20207;-62
2022/05/07 11:33:42;;;;;;;4.00;3.80;;;;;;;21.58;43.74;99991.69;5108828;28;20582;-62
2022/05/07 11:36:09;;;;;;;3.50;3.30;;;;;;;21.58;45.01;99997.75;5109573;28;20207;-61
2022/05/07 11:38:37;;;;;;;3.93;3.70;;;;;;;21.63;45.17;99990.44;5109895;28;20329;-61
2022/05/07 11:41:14;;;;;;;4.10;3.90;;;;;;;21.59;45.44;99986.34;5109497;28;20214;-60
2022/05/07 11:46:27;;;;;;;5.03;4.77;;;;;;;21.59;46.33;99983.75;5107662;28;20577;-62
2022/05/07 11:48:54;;;;;;;5.33;5.03;;;;;;;21.88;48.61;99976.56;5109550;28;20287;-64
2022/05/07 11:51:25;;;;;;;4.80;4.60;;;;;;;22.09;47.14;99971.72;5109489;28;20211;-61
2022/05/07 11:53:53;;;;;;;5.40;4.90;;;;;;;22.03;45.91;99982.59;5106740;28;20622;-61
2022/05/07 11:56:20;;;;;;;8.10;4.53;;;;;;;21.93;45.17;99972.78;5103227;28;20285;-61
2022/05/07 11:58:49;;;;;;;6.23;5.57;;;;;;;21.83;47.82;99961.25;5103567;28;20202;-62